sensor_id;sensor_type;location;lat;lon;timestamp;noise_LAeq;noise_LA_min;noise_LA_max;noise_LA01;noise_LA95
70245;Laerm;57637;49.272;8.590;2024-02-15T00:02:13;48.74;47.19;57.50;;
70245;Laerm;57637;49.272;8.590;2024-02-15T00:04:39;48.69;47.03;57.92;;
70245;Laerm;57637;49.272;8.590;2024-02-15T00:07:04;48.57;47.08;54.54;;
70245;Laerm;57637;49.272;8.590;2024-02-15T00:09:29;48.85;46.88;57.81;;
70245;Laerm;57637;49.272;8.590;2024-02-15T00:11:56;48.61;46.88;52.72;;
70245;Laerm;57637;49.272;8.590;2024-02-15T00:14:21;48.85;47.28;55.38;;
70245;Laerm;57637;49.272;8.590;2024-02-15T00:16:46;49.04;47.50;54.78;;
70245;Laerm;57637;49.272;8.590;2024-02-15T00:19:12;49.36;47.14;59.19;;
70245;Laerm;57637;49.272;8.590;2024-02-15T00:21:42;49.88;47.19;61.40;;
70245;Laerm;57637;49.272;8.590;2024-02-15T00:24:08;50.00;46.80;61.27;;
70245;Laerm;57637;49.272;8.590;2024-02-15T00:26:33;49.13;47.53;54.78;;
70245;Laerm;57637;49.272;8.590;2024-02-15T00:28:58;48.55;47.08;53.39;;
70245;Laerm;57637;49.272;8.590;2024-02-15T00:31:24;48.43;47.21;52.01;;
70245;Laerm;57637;49.272;8.590;2024-02-15T00:33:49;49.21;47.64;59.59;;
70245;Laerm;57637;49.272;8.590;2024-02-15T00:36:14;49.33;47.25;60.41;;
70245;Laerm;57637;49.272;8.590;2024-02-15T00:38:41;49.29;46.86;60.55;;
70245;Laerm;57637;49.272;8.590;2024-02-15T00:41:08;48.64;46.73;58.19;;
70245;Laerm;57637;49.272;8.590;2024-02-15T00:43:36;48.46;47.07;52.64;;
70245;Laerm;57637;49.272;8.590;2024-02-15T00:46:02;48.52;46.99;57.24;;
70245;Laerm;57637;49.272;8.590;2024-02-15T00:48:27;48.46;47.07;52.54;;
70245;Laerm;57637;49.272;8.590;2024-02-15T00:50:55;48.48;47.23;51.52;;
70245;Laerm;57637;49.272;8.590;2024-02-15T00:53:20;48.48;47.21;51.83;;
70245;Laerm;57637;49.272;8.590;2024-02-15T00:55:46;48.42;47.20;51.55;;
70245;Laerm;57637;49.272;8.590;2024-02-15T00:58:11;48.45;47.26;51.93;;
70245;Laerm;57637;49.272;8.590;2024-02-15T01:00:37;48.68;47.09;58.10;;
70245;Laerm;57637;49.272;8.590;2024-02-15T01:03:03;49.62;46.70;59.56;;
70245;Laerm;57637;49.272;8.590;2024-02-15T01:05:29;48.72;46.72;57.59;;
70245;Laerm;57637;49.272;8.590;2024-02-15T01:07:56;48.41;47.07;52.49;;
70245;Laerm;57637;49.272;8.590;2024-02-15T01:10:21;48.42;46.96;52.78;;
70245;Laerm;57637;49.272;8.590;2024-02-15T01:12:47;49.05;46.84;59.25;;
70245;Laerm;57637;49.272;8.590;2024-02-15T01:15:14;49.69;46.97;60.90;;
70245;Laerm;57637;49.272;8.590;2024-02-15T01:17:43;49.20;47.12;60.77;;
70245;Laerm;57637;49.272;8.590;2024-02-15T01:20:09;48.42;46.75;51.94;;
70245;Laerm;57637;49.272;8.590;2024-02-15T01:22:34;48.81;46.91;58.01;;
70245;Laerm;57637;49.272;8.590;2024-02-15T01:25:00;48.75;46.84;58.52;;
70245;Laerm;57637;49.272;8.590;2024-02-15T01:27:25;48.60;46.91;58.57;;
70245;Laerm;57637;49.272;8.590;2024-02-15T01:29:58;48.76;47.07;59.11;;
70245;Laerm;57637;49.272;8.590;2024-02-15T01:32:23;48.59;47.28;52.11;;
70245;Laerm;57637;49.272;8.590;2024-02-15T01:34:50;48.47;47.19;50.45;;
70245;Laerm;57637;49.272;8.590;2024-02-15T01:37:19;48.47;46.99;51.81;;
70245;Laerm;57637;49.272;8.590;2024-02-15T01:39:45;49.07;46.77;58.81;;
70245;Laerm;57637;49.272;8.590;2024-02-15T01:42:11;48.48;47.03;51.63;;
70245;Laerm;57637;49.272;8.590;2024-02-15T01:44:36;48.48;47.13;51.49;;
70245;Laerm;57637;49.272;8.590;2024-02-15T01:47:02;48.72;47.16;60.92;;
70245;Laerm;57637;49.272;8.590;2024-02-15T01:49:29;49.59;47.05;60.26;;
70245;Laerm;57637;49.272;8.590;2024-02-15T01:51:56;49.15;47.12;59.88;;
70245;Laerm;57637;49.272;8.590;2024-02-15T01:54:22;48.58;47.31;51.69;;
70245;Laerm;57637;49.272;8.590;2024-02-15T01:56:49;48.59;47.07;57.82;;
70245;Laerm;57637;49.272;8.590;2024-02-15T01:59:15;48.49;47.03;52.30;;
70245;Laerm;57637;49.272;8.590;2024-02-15T02:01:41;48.68;46.70;58.40;;
70245;Laerm;57637;49.272;8.590;2024-02-15T02:04:07;48.65;46.70;58.45;;
70245;Laerm;57637;49.272;8.590;2024-02-15T02:06:33;48.54;47.22;52.54;;
70245;Laerm;57637;49.272;8.590;2024-02-15T02:08:58;48.48;46.77;56.64;;
70245;Laerm;57637;49.272;8.590;2024-02-15T02:11:24;48.41;46.75;52.11;;
70245;Laerm;57637;49.272;8.590;2024-02-15T02:13:50;48.49;46.89;57.53;;
70245;Laerm;57637;49.272;8.590;2024-02-15T02:16:30;48.74;46.68;58.08;;
70245;Laerm;57637;49.272;8.590;2024-02-15T02:18:58;48.37;46.67;56.28;;
70245;Laerm;57637;49.272;8.590;2024-02-15T02:21:27;48.90;47.36;59.44;;
70245;Laerm;57637;49.272;8.590;2024-02-15T02:23:55;48.78;47.02;59.70;;
70245;Laerm;57637;49.272;8.590;2024-02-15T02:26:21;48.43;46.99;57.43;;
70245;Laerm;57637;49.272;8.590;2024-02-15T02:28:47;48.44;47.02;51.43;;
70245;Laerm;57637;49.272;8.590;2024-02-15T02:31:13;48.50;47.21;51.67;;
70245;Laerm;57637;49.272;8.590;2024-02-15T02:33:41;48.42;47.13;56.77;;
70245;Laerm;57637;49.272;8.590;2024-02-15T02:36:06;48.48;46.99;57.10;;
70245;Laerm;57637;49.272;8.590;2024-02-15T02:38:37;48.38;46.93;52.06;;
70245;Laerm;57637;49.272;8.590;2024-02-15T02:41:06;48.50;47.13;52.69;;
70245;Laerm;57637;49.272;8.590;2024-02-15T02:43:31;48.36;46.98;52.02;;
70245;Laerm;57637;49.272;8.590;2024-02-15T02:45:56;49.25;46.85;59.00;;
70245;Laerm;57637;49.272;8.590;2024-02-15T02:48:22;49.18;47.25;60.12;;
70245;Laerm;57637;49.272;8.590;2024-02-15T02:50:48;49.19;47.64;54.81;;
70245;Laerm;57637;49.272;8.590;2024-02-15T02:53:14;49.18;47.70;54.94;;
70245;Laerm;57637;49.272;8.590;2024-02-15T02:55:41;48.76;47.48;53.97;;
70245;Laerm;57637;49.272;8.590;2024-02-15T02:58:06;48.63;47.39;51.97;;
70245;Laerm;57637;49.272;8.590;2024-02-15T03:00:33;49.22;47.01;60.47;;
70245;Laerm;57637;49.272;8.590;2024-02-15T03:02:58;49.11;47.25;54.86;;
70245;Laerm;57637;49.272;8.590;2024-02-15T03:05:25;48.59;47.30;52.11;;
70245;Laerm;57637;49.272;8.590;2024-02-15T03:07:50;48.61;47.10;51.91;;
70245;Laerm;57637;49.272;8.590;2024-02-15T03:10:17;48.58;47.23;52.07;;
70245;Laerm;57637;49.272;8.590;2024-02-15T03:12:44;48.87;47.49;54.35;;
70245;Laerm;57637;49.272;8.590;2024-02-15T03:15:12;49.51;46.98;61.11;;
70245;Laerm;57637;49.272;8.590;2024-02-15T03:17:39;49.18;47.61;54.82;;
70245;Laerm;57637;49.272;8.590;2024-02-15T03:20:09;49.06;47.76;53.99;;
70245;Laerm;57637;49.272;8.590;2024-02-15T03:22:50;48.90;47.19;60.43;;
70245;Laerm;57637;49.272;8.590;2024-02-15T03:25:16;48.70;46.99;58.40;;
70245;Laerm;57637;49.272;8.590;2024-02-15T03:27:41;49.36;46.67;59.85;;
70245;Laerm;57637;49.272;8.590;2024-02-15T03:30:07;49.17;46.71;59.48;;
70245;Laerm;57637;49.272;8.590;2024-02-15T03:32:32;49.44;46.95;59.99;;
70245;Laerm;57637;49.272;8.590;2024-02-15T03:34:58;49.56;47.36;60.48;;
70245;Laerm;57637;49.272;8.590;2024-02-15T03:37:26;49.88;47.09;60.72;;
70245;Laerm;57637;49.272;8.590;2024-02-15T03:39:51;49.12;47.11;59.89;;
70245;Laerm;57637;49.272;8.590;2024-02-15T03:42:16;49.62;46.89;60.54;;
70245;Laerm;57637;49.272;8.590;2024-02-15T03:44:42;48.76;47.07;55.06;;
70245;Laerm;57637;49.272;8.590;2024-02-15T03:47:07;48.88;47.06;59.07;;
70245;Laerm;57637;49.272;8.590;2024-02-15T03:49:32;48.65;46.96;58.67;;
70245;Laerm;57637;49.272;8.590;2024-02-15T03:51:58;49.48;46.82;59.88;;
70245;Laerm;57637;49.272;8.590;2024-02-15T03:54:25;49.43;46.78;59.55;;
70245;Laerm;57637;49.272;8.590;2024-02-15T03:56:51;48.88;46.74;57.69;;
70245;Laerm;57637;49.272;8.590;2024-02-15T03:59:18;49.09;46.54;58.70;;
70245;Laerm;57637;49.272;8.590;2024-02-15T04:01:46;48.54;46.96;56.33;;
70245;Laerm;57637;49.272;8.590;2024-02-15T04:04:12;48.69;47.19;58.74;;
70245;Laerm;57637;49.272;8.590;2024-02-15T04:06:38;48.72;46.82;58.29;;
70245;Laerm;57637;49.272;8.590;2024-02-15T04:09:05;48.51;46.92;57.25;;
70245;Laerm;57637;49.272;8.590;2024-02-15T04:11:32;49.08;46.52;58.40;;
70245;Laerm;57637;49.272;8.590;2024-02-15T04:13:59;48.53;46.94;57.60;;
70245;Laerm;57637;49.272;8.590;2024-02-15T04:16:24;49.07;46.84;58.20;;
70245;Laerm;57637;49.272;8.590;2024-02-15T04:18:51;48.80;46.75;58.04;;
70245;Laerm;57637;49.272;8.590;2024-02-15T04:21:16;48.47;47.14;52.75;;
70245;Laerm;57637;49.272;8.590;2024-02-15T04:23:45;48.74;46.87;58.64;;
70245;Laerm;57637;49.272;8.590;2024-02-15T04:26:11;48.41;47.16;52.17;;
70245;Laerm;57637;49.272;8.590;2024-02-15T04:28:39;48.45;47.13;52.48;;
70245;Laerm;57637;49.272;8.590;2024-02-15T04:31:04;48.51;46.95;53.05;;
70245;Laerm;57637;49.272;8.590;2024-02-15T04:33:33;49.30;47.85;55.82;;
70245;Laerm;57637;49.272;8.590;2024-02-15T04:35:59;49.39;47.22;60.13;;
70245;Laerm;57637;49.272;8.590;2024-02-15T04:38:27;49.44;47.10;60.23;;
70245;Laerm;57637;49.272;8.590;2024-02-15T04:40:52;49.63;47.12;60.42;;
70245;Laerm;57637;49.272;8.590;2024-02-15T04:43:19;49.27;47.12;60.57;;
70245;Laerm;57637;49.272;8.590;2024-02-15T04:45:44;50.14;46.98;61.26;;
70245;Laerm;57637;49.272;8.590;2024-02-15T04:48:11;49.12;47.66;55.34;;
70245;Laerm;57637;49.272;8.590;2024-02-15T04:50:40;49.11;47.73;55.32;;
70245;Laerm;57637;49.272;8.590;2024-02-15T04:53:08;49.42;47.14;60.09;;
70245;Laerm;57637;49.272;8.590;2024-02-15T04:55:34;50.18;47.02;61.11;;
70245;Laerm;57637;49.272;8.590;2024-02-15T04:58:00;50.87;47.08;61.42;;
70245;Laerm;57637;49.272;8.590;2024-02-15T05:00:26;50.58;46.91;61.68;;
70245;Laerm;57637;49.272;8.590;2024-02-15T05:02:51;49.30;47.19;60.17;;
70245;Laerm;57637;49.272;8.590;2024-02-15T05:05:17;49.29;47.18;60.16;;
70245;Laerm;57637;49.272;8.590;2024-02-15T05:07:43;49.55;46.92;60.55;;
70245;Laerm;57637;49.272;8.590;2024-02-15T05:10:08;49.67;47.02;60.62;;
70245;Laerm;57637;49.272;8.590;2024-02-15T05:12:36;49.92;46.91;61.26;;
70245;Laerm;57637;49.272;8.590;2024-02-15T05:15:02;50.25;47.30;61.53;;
70245;Laerm;57637;49.272;8.590;2024-02-15T05:17:35;49.61;47.11;61.11;;
70245;Laerm;57637;49.272;8.590;2024-02-15T05:20:01;50.61;46.94;60.67;;
70245;Laerm;57637;49.272;8.590;2024-02-15T05:22:26;49.22;46.95;59.43;;
70245;Laerm;57637;49.272;8.590;2024-02-15T05:24:55;48.65;47.32;51.58;;
70245;Laerm;57637;49.272;8.590;2024-02-15T05:27:20;49.64;47.32;60.57;;
70245;Laerm;57637;49.272;8.590;2024-02-15T05:29:46;49.84;47.26;60.35;;
70245;Laerm;57637;49.272;8.590;2024-02-15T05:32:11;49.82;47.30;60.68;;
70245;Laerm;57637;49.272;8.590;2024-02-15T05:34:38;49.45;47.21;58.63;;
70245;Laerm;57637;49.272;8.590;2024-02-15T05:37:05;50.03;47.19;60.87;;
70245;Laerm;57637;49.272;8.590;2024-02-15T05:39:32;50.53;46.92;61.23;;
70245;Laerm;57637;49.272;8.590;2024-02-15T05:41:57;49.49;47.78;60.19;;
70245;Laerm;57637;49.272;8.590;2024-02-15T05:44:26;49.63;47.05;60.83;;
70245;Laerm;57637;49.272;8.590;2024-02-15T05:46:51;49.98;47.08;60.89;;
70245;Laerm;57637;49.272;8.590;2024-02-15T05:49:16;49.13;47.49;59.45;;
70245;Laerm;57637;49.272;8.590;2024-02-15T05:51:43;49.14;47.57;55.16;;
70245;Laerm;57637;49.272;8.590;2024-02-15T05:54:08;48.53;47.13;57.94;;
70245;Laerm;57637;49.272;8.590;2024-02-15T05:56:33;48.55;47.26;55.60;;
70245;Laerm;57637;49.272;8.590;2024-02-15T05:58:59;49.36;46.63;58.94;;
70245;Laerm;57637;49.272;8.590;2024-02-15T06:01:27;48.67;46.80;58.89;;
70245;Laerm;57637;49.272;8.590;2024-02-15T06:03:54;48.47;47.09;51.62;;
70245;Laerm;57637;49.272;8.590;2024-02-15T06:06:21;49.17;46.76;58.93;;
70245;Laerm;57637;49.272;8.590;2024-02-15T06:08:47;49.46;46.65;59.15;;
70245;Laerm;57637;49.272;8.590;2024-02-15T06:11:12;48.52;46.97;57.50;;
70245;Laerm;57637;49.272;8.590;2024-02-15T06:13:39;49.34;46.75;58.57;;
70245;Laerm;57637;49.272;8.590;2024-02-15T06:16:05;49.55;46.25;59.61;;
70245;Laerm;57637;49.272;8.590;2024-02-15T06:18:34;48.90;46.90;58.04;;
70245;Laerm;57637;49.272;8.590;2024-02-15T06:20:59;48.54;47.14;51.92;;
70245;Laerm;57637;49.272;8.590;2024-02-15T06:23:26;48.93;46.82;58.26;;
70245;Laerm;57637;49.272;8.590;2024-02-15T06:25:53;48.99;46.64;59.06;;
70245;Laerm;57637;49.272;8.590;2024-02-15T06:28:19;48.60;47.17;52.96;;
70245;Laerm;57637;49.272;8.590;2024-02-15T06:31:14;48.76;46.89;58.64;;
70245;Laerm;57637;49.272;8.590;2024-02-15T06:33:58;48.70;46.93;58.63;;
70245;Laerm;57637;49.272;8.590;2024-02-15T06:36:56;48.73;47.30;52.31;;
70245;Laerm;57637;49.272;8.590;2024-02-15T06:39:40;48.74;47.31;52.50;;
70245;Laerm;57637;49.272;8.590;2024-02-15T06:42:16;48.78;47.18;54.06;;
70245;Laerm;57637;49.272;8.590;2024-02-15T06:44:43;48.75;47.14;52.58;;
70245;Laerm;57637;49.272;8.590;2024-02-15T06:47:09;51.26;47.02;61.86;;
70245;Laerm;57637;49.272;8.590;2024-02-15T06:49:39;57.22;48.05;62.29;;
70245;Laerm;57637;49.272;8.590;2024-02-15T06:52:06;57.75;47.92;63.52;;
70245;Laerm;57637;49.272;8.590;2024-02-15T06:54:32;58.01;47.66;62.99;;
70245;Laerm;57637;49.272;8.590;2024-02-15T06:56:58;58.35;47.19;63.27;;
70245;Laerm;57637;49.272;8.590;2024-02-15T06:59:23;58.21;47.50;63.55;;
70245;Laerm;57637;49.272;8.590;2024-02-15T07:01:49;58.39;47.12;63.98;;
70245;Laerm;57637;49.272;8.590;2024-02-15T07:04:17;58.52;47.43;63.66;;
70245;Laerm;57637;49.272;8.590;2024-02-15T07:06:42;57.01;47.05;62.92;;
70245;Laerm;57637;49.272;8.590;2024-02-15T07:09:11;56.56;47.40;62.17;;
70245;Laerm;57637;49.272;8.590;2024-02-15T07:11:36;57.49;47.33;63.34;;
70245;Laerm;57637;49.272;8.590;2024-02-15T07:14:02;58.82;47.11;64.30;;
70245;Laerm;57637;49.272;8.590;2024-02-15T07:16:29;58.76;47.37;64.19;;
70245;Laerm;57637;49.272;8.590;2024-02-15T07:18:55;58.76;47.69;63.81;;
70245;Laerm;57637;49.272;8.590;2024-02-15T07:21:20;57.97;46.98;62.91;;
70245;Laerm;57637;49.272;8.590;2024-02-15T07:23:51;57.92;47.18;62.71;;
70245;Laerm;57637;49.272;8.590;2024-02-15T07:26:16;57.07;47.37;62.72;;
70245;Laerm;57637;49.272;8.590;2024-02-15T07:28:42;56.93;47.17;62.41;;
70245;Laerm;57637;49.272;8.590;2024-02-15T07:31:07;56.93;47.57;62.34;;
70245;Laerm;57637;49.272;8.590;2024-02-15T07:33:32;56.61;47.55;61.37;;
70245;Laerm;57637;49.272;8.590;2024-02-15T07:36:00;56.93;47.59;63.23;;
70245;Laerm;57637;49.272;8.590;2024-02-15T07:38:25;57.11;47.38;63.04;;
70245;Laerm;57637;49.272;8.590;2024-02-15T07:40:51;56.64;47.13;61.99;;
70245;Laerm;57637;49.272;8.590;2024-02-15T07:43:16;54.85;47.07;60.89;;
70245;Laerm;57637;49.272;8.590;2024-02-15T07:45:42;57.98;47.28;64.64;;
70245;Laerm;57637;49.272;8.590;2024-02-15T07:48:07;58.41;47.80;63.41;;
70245;Laerm;57637;49.272;8.590;2024-02-15T07:50:33;57.67;47.20;64.37;;
70245;Laerm;57637;49.272;8.590;2024-02-15T07:52:58;56.62;47.33;62.37;;
70245;Laerm;57637;49.272;8.590;2024-02-15T07:55:24;57.00;47.64;62.86;;
70245;Laerm;57637;49.272;8.590;2024-02-15T07:57:52;55.59;47.75;61.82;;
70245;Laerm;57637;49.272;8.590;2024-02-15T08:00:18;55.52;47.88;60.57;;
70245;Laerm;57637;49.272;8.590;2024-02-15T08:02:43;54.79;47.22;60.62;;
70245;Laerm;57637;49.272;8.590;2024-02-15T08:05:10;55.00;47.36;61.80;;
70245;Laerm;57637;49.272;8.590;2024-02-15T08:07:43;55.80;47.64;60.63;;
70245;Laerm;57637;49.272;8.590;2024-02-15T08:10:12;57.13;47.18;62.43;;
70245;Laerm;57637;49.272;8.590;2024-02-15T08:12:40;56.41;46.76;62.53;;
70245;Laerm;57637;49.272;8.590;2024-02-15T08:15:07;57.77;47.64;62.79;;
70245;Laerm;57637;49.272;8.590;2024-02-15T08:17:43;57.78;47.49;63.37;;
70245;Laerm;57637;49.272;8.590;2024-02-15T08:20:11;57.57;47.25;63.08;;
70245;Laerm;57637;49.272;8.590;2024-02-15T08:22:37;57.41;47.16;62.76;;
70245;Laerm;57637;49.272;8.590;2024-02-15T08:25:07;57.73;47.71;63.11;;
70245;Laerm;57637;49.272;8.590;2024-02-15T08:27:35;57.60;47.31;63.24;;
70245;Laerm;57637;49.272;8.590;2024-02-15T08:30:07;58.43;47.50;63.47;;
70245;Laerm;57637;49.272;8.590;2024-02-15T08:32:34;57.75;47.50;63.29;;
70245;Laerm;57637;49.272;8.590;2024-02-15T08:34:59;58.20;46.89;63.36;;
70245;Laerm;57637;49.272;8.590;2024-02-15T08:37:25;57.92;47.58;63.15;;
70245;Laerm;57637;49.272;8.590;2024-02-15T08:39:50;58.54;47.39;64.34;;
70245;Laerm;57637;49.272;8.590;2024-02-15T08:42:17;58.32;47.12;63.28;;
70245;Laerm;57637;49.272;8.590;2024-02-15T08:44:47;58.52;47.10;63.97;;
70245;Laerm;57637;49.272;8.590;2024-02-15T08:47:13;58.53;47.75;63.90;;
70245;Laerm;57637;49.272;8.590;2024-02-15T08:49:38;58.36;46.87;63.69;;
70245;Laerm;57637;49.272;8.590;2024-02-15T08:52:05;58.03;46.79;63.86;;
70245;Laerm;57637;49.272;8.590;2024-02-15T08:54:33;58.40;46.82;63.89;;
70245;Laerm;57637;49.272;8.590;2024-02-15T08:56:58;58.58;47.62;63.53;;
70245;Laerm;57637;49.272;8.590;2024-02-15T08:59:24;58.78;47.64;63.58;;
70245;Laerm;57637;49.272;8.590;2024-02-15T09:01:50;58.93;47.07;63.66;;
70245;Laerm;57637;49.272;8.590;2024-02-15T09:04:16;59.92;47.19;65.32;;
70245;Laerm;57637;49.272;8.590;2024-02-15T09:06:41;59.09;47.45;64.62;;
70245;Laerm;57637;49.272;8.590;2024-02-15T09:09:08;59.29;47.56;64.26;;
70245;Laerm;57637;49.272;8.590;2024-02-15T09:11:33;58.50;47.44;64.72;;
70245;Laerm;57637;49.272;8.590;2024-02-15T09:13:59;50.48;47.87;61.91;;
70245;Laerm;57637;49.272;8.590;2024-02-15T09:16:25;50.22;48.54;61.07;;
70245;Laerm;57637;49.272;8.590;2024-02-15T09:18:50;50.36;48.47;61.23;;
70245;Laerm;57637;49.272;8.590;2024-02-15T09:21:15;50.28;48.30;61.22;;
70245;Laerm;57637;49.272;8.590;2024-02-15T09:23:41;50.77;48.01;61.15;;
70245;Laerm;57637;49.272;8.590;2024-02-15T09:26:06;50.95;48.85;61.35;;
70245;Laerm;57637;49.272;8.590;2024-02-15T09:28:35;50.69;48.47;61.59;;
70245;Laerm;57637;49.272;8.590;2024-02-15T09:31:00;50.71;48.33;62.31;;
70245;Laerm;57637;49.272;8.590;2024-02-15T09:33:26;50.74;48.43;62.07;;
70245;Laerm;57637;49.272;8.590;2024-02-15T09:35:52;50.78;48.31;61.37;;
70245;Laerm;57637;49.272;8.590;2024-02-15T09:38:19;50.83;47.37;60.91;;
70245;Laerm;57637;49.272;8.590;2024-02-15T09:40:48;50.67;47.68;60.02;;
70245;Laerm;57637;49.272;8.590;2024-02-15T09:43:14;50.63;47.82;59.46;;
70245;Laerm;57637;49.272;8.590;2024-02-15T09:45:40;50.84;48.95;62.26;;
70245;Laerm;57637;49.272;8.590;2024-02-15T09:48:06;50.87;49.00;61.87;;
70245;Laerm;57637;49.272;8.590;2024-02-15T09:50:34;51.00;48.26;61.80;;
70245;Laerm;57637;49.272;8.590;2024-02-15T09:53:00;50.97;48.36;62.94;;
70245;Laerm;57637;49.272;8.590;2024-02-15T09:55:27;50.99;47.88;62.29;;
70245;Laerm;57637;49.272;8.590;2024-02-15T09:57:53;51.04;48.47;62.18;;
70245;Laerm;57637;49.272;8.590;2024-02-15T10:00:19;50.62;47.78;61.98;;
70245;Laerm;57637;49.272;8.590;2024-02-15T10:02:51;49.98;48.04;59.37;;
70245;Laerm;57637;49.272;8.590;2024-02-15T10:05:20;50.34;48.36;62.33;;
70245;Laerm;57637;49.272;8.590;2024-02-15T10:07:46;50.00;47.98;61.33;;
70245;Laerm;57637;49.272;8.590;2024-02-15T10:10:19;50.10;48.03;59.72;;
70245;Laerm;57637;49.272;8.590;2024-02-15T10:12:54;50.28;48.21;59.11;;
70245;Laerm;57637;49.272;8.590;2024-02-15T10:15:37;50.24;48.00;59.74;;
70245;Laerm;57637;49.272;8.590;2024-02-15T10:18:06;50.01;47.58;59.62;;
70245;Laerm;57637;49.272;8.590;2024-02-15T10:20:39;49.72;47.72;58.66;;
70245;Laerm;57637;49.272;8.590;2024-02-15T10:23:12;51.13;47.97;59.31;;
70245;Laerm;57637;49.272;8.590;2024-02-15T10:25:40;51.10;47.76;59.70;;
70245;Laerm;57637;49.272;8.590;2024-02-15T10:28:06;51.19;48.15;60.06;;
70245;Laerm;57637;49.272;8.590;2024-02-15T10:30:33;50.77;47.97;59.52;;
70245;Laerm;57637;49.272;8.590;2024-02-15T10:33:00;50.11;47.35;60.95;;
70245;Laerm;57637;49.272;8.590;2024-02-15T10:35:26;49.67;47.68;62.27;;
70245;Laerm;57637;49.272;8.590;2024-02-15T10:37:51;49.69;47.96;59.10;;
70245;Laerm;57637;49.272;8.590;2024-02-15T10:40:22;49.63;47.53;58.65;;
70245;Laerm;57637;49.272;8.590;2024-02-15T10:42:51;49.66;47.48;56.91;;
70245;Laerm;57637;49.272;8.590;2024-02-15T10:45:17;49.61;47.54;59.47;;
70245;Laerm;57637;49.272;8.590;2024-02-15T10:47:45;49.76;47.33;57.35;;
70245;Laerm;57637;49.272;8.590;2024-02-15T10:50:12;49.80;47.46;57.61;;
70245;Laerm;57637;49.272;8.590;2024-02-15T10:52:45;49.72;47.57;57.51;;
70245;Laerm;57637;49.272;8.590;2024-02-15T10:55:19;49.92;47.69;57.54;;
70245;Laerm;57637;49.272;8.590;2024-02-15T10:57:46;51.16;47.75;58.73;;
70245;Laerm;57637;49.272;8.590;2024-02-15T11:00:15;51.28;47.10;58.21;;
70245;Laerm;57637;49.272;8.590;2024-02-15T11:03:04;50.95;47.47;58.24;;
70245;Laerm;57637;49.272;8.590;2024-02-15T11:05:36;51.40;47.58;61.74;;
70245;Laerm;57637;49.272;8.590;2024-02-15T11:08:07;52.02;47.74;61.81;;
70245;Laerm;57637;49.272;8.590;2024-02-15T11:10:37;51.81;47.52;60.42;;
70245;Laerm;57637;49.272;8.590;2024-02-15T11:13:03;52.31;48.12;61.98;;
70245;Laerm;57637;49.272;8.590;2024-02-15T11:18:00;54.36;48.02;62.07;;
70245;Laerm;57637;49.272;8.590;2024-02-15T11:20:49;53.82;47.49;61.07;;
70245;Laerm;57637;49.272;8.590;2024-02-15T11:23:23;51.87;49.03;61.62;;
70245;Laerm;57637;49.272;8.590;2024-02-15T11:25:49;52.97;47.84;61.95;;
70245;Laerm;57637;49.272;8.590;2024-02-15T11:30:46;52.56;48.09;63.64;;
70245;Laerm;57637;49.272;8.590;2024-02-15T11:33:27;52.39;48.16;61.72;;
70245;Laerm;57637;49.272;8.590;2024-02-15T11:36:06;53.39;47.62;63.30;;
70245;Laerm;57637;49.272;8.590;2024-02-15T11:38:31;52.24;48.62;63.03;;
70245;Laerm;57637;49.272;8.590;2024-02-15T11:46:16;53.40;49.21;63.76;;
70245;Laerm;57637;49.272;8.590;2024-02-15T11:48:45;54.45;48.67;65.04;;
70245;Laerm;57637;49.272;8.590;2024-02-15T11:51:31;55.36;48.85;64.95;;
70245;Laerm;57637;49.272;8.590;2024-02-15T11:54:11;56.25;48.52;65.36;;
70245;Laerm;57637;49.272;8.590;2024-02-15T11:56:55;58.05;48.92;67.26;;
70245;Laerm;57637;49.272;8.590;2024-02-15T11:59:43;60.11;53.17;68.85;;
70245;Laerm;57637;49.272;8.590;2024-02-15T12:02:21;60.13;50.99;69.97;;
70245;Laerm;57637;49.272;8.590;2024-02-15T12:05:10;60.41;51.45;69.66;;
70245;Laerm;57637;49.272;8.590;2024-02-15T12:07:58;61.39;51.78;70.39;;
70245;Laerm;57637;49.272;8.590;2024-02-15T12:10:59;61.43;52.51;69.66;;
70245;Laerm;57637;49.272;8.590;2024-02-15T12:13:43;61.35;50.66;69.80;;
70245;Laerm;57637;49.272;8.590;2024-02-15T12:16:27;60.52;48.58;70.82;;
70245;Laerm;57637;49.272;8.590;2024-02-15T12:19:11;60.78;51.05;69.53;;
70245;Laerm;57637;49.272;8.590;2024-02-15T12:21:37;60.88;51.25;69.32;;
70245;Laerm;57637;49.272;8.590;2024-02-15T12:24:07;60.36;51.42;69.39;;
70245;Laerm;57637;49.272;8.590;2024-02-15T12:26:32;60.46;49.54;69.47;;
70245;Laerm;57637;49.272;8.590;2024-02-15T12:29:00;59.12;47.62;68.43;;
70245;Laerm;57637;49.272;8.590;2024-02-15T12:31:26;56.05;47.60;69.16;;
70245;Laerm;57637;49.272;8.590;2024-02-15T12:34:01;57.57;47.49;70.66;;
70245;Laerm;57637;49.272;8.590;2024-02-15T12:36:31;57.22;47.92;70.04;;
70245;Laerm;57637;49.272;8.590;2024-02-15T12:39:00;58.23;48.30;70.80;;
70245;Laerm;57637;49.272;8.590;2024-02-15T12:41:25;57.78;48.12;69.85;;
70245;Laerm;57637;49.272;8.590;2024-02-15T12:43:54;57.20;48.00;70.36;;
70245;Laerm;57637;49.272;8.590;2024-02-15T12:46:20;57.82;47.86;70.18;;
70245;Laerm;57637;49.272;8.590;2024-02-15T12:48:45;57.73;48.13;70.29;;
70245;Laerm;57637;49.272;8.590;2024-02-15T12:51:14;57.36;47.71;70.69;;
70245;Laerm;57637;49.272;8.590;2024-02-15T12:53:40;57.65;48.02;70.00;;
70245;Laerm;57637;49.272;8.590;2024-02-15T12:56:07;57.68;47.95;68.98;;
70245;Laerm;57637;49.272;8.590;2024-02-15T12:58:34;55.30;47.25;69.58;;
70245;Laerm;57637;49.272;8.590;2024-02-15T13:00:59;54.75;47.44;67.39;;
70245;Laerm;57637;49.272;8.590;2024-02-15T13:03:26;55.03;47.52;68.05;;
70245;Laerm;57637;49.272;8.590;2024-02-15T13:05:51;55.99;47.49;68.64;;
70245;Laerm;57637;49.272;8.590;2024-02-15T13:08:17;54.76;47.58;67.61;;
70245;Laerm;57637;49.272;8.590;2024-02-15T13:10:43;55.14;47.27;67.38;;
70245;Laerm;57637;49.272;8.590;2024-02-15T13:13:09;54.84;47.78;67.74;;
70245;Laerm;57637;49.272;8.590;2024-02-15T13:15:35;55.31;47.78;68.55;;
70245;Laerm;57637;49.272;8.590;2024-02-15T13:18:01;55.13;47.78;67.62;;
70245;Laerm;57637;49.272;8.590;2024-02-15T13:20:29;55.68;47.65;67.40;;
70245;Laerm;57637;49.272;8.590;2024-02-15T13:22:59;55.56;47.62;68.61;;
70245;Laerm;57637;49.272;8.590;2024-02-15T13:25:33;56.80;48.24;69.92;;
70245;Laerm;57637;49.272;8.590;2024-02-15T13:27:59;57.42;47.83;68.96;;
70245;Laerm;57637;49.272;8.590;2024-02-15T13:30:24;57.50;47.89;70.64;;
70245;Laerm;57637;49.272;8.590;2024-02-15T13:32:53;57.40;48.39;69.89;;
70245;Laerm;57637;49.272;8.590;2024-02-15T13:35:19;57.51;48.21;69.94;;
70245;Laerm;57637;49.272;8.590;2024-02-15T13:40:14;57.21;48.14;70.06;;
70245;Laerm;57637;49.272;8.590;2024-02-15T13:42:47;57.41;48.09;70.15;;
70245;Laerm;57637;49.272;8.590;2024-02-15T13:45:28;56.83;47.36;69.91;;
70245;Laerm;57637;49.272;8.590;2024-02-15T13:47:58;56.94;47.87;70.54;;
70245;Laerm;57637;49.272;8.590;2024-02-15T13:50:24;57.14;48.19;69.54;;
70245;Laerm;57637;49.272;8.590;2024-02-15T13:52:50;56.82;48.19;69.76;;
70245;Laerm;57637;49.272;8.590;2024-02-15T13:55:16;56.86;48.31;68.15;;
70245;Laerm;57637;49.272;8.590;2024-02-15T13:57:43;57.15;48.10;70.00;;
70245;Laerm;57637;49.272;8.590;2024-02-15T14:00:11;56.68;47.89;68.79;;
70245;Laerm;57637;49.272;8.590;2024-02-15T14:02:50;56.94;47.96;68.91;;